Time;durP1;ratioP1;P1;durP2;ratioP2;P2;SDS_P1;SDS_P2;PMS_P1;PMS_P2;Temp;Humidity;BMP_temperature;BMP_pressure;BME280_temperature;BME280_humidity;BME280_pressure;Samples;Min_cycle;Max_cycle;Signal;HPM_P1;HPM_P2
2023/01/27 00:00:40;;;;;;;20.05;8.80;;;4.30;99.90;;;;;;5043245;28;20494;-62
2023/01/27 00:03:09;;;;;;;16.50;9.20;;;4.30;99.90;;;;;;5032135;28;20034;-62
2023/01/27 00:05:34;;;;;;;19.20;8.85;;;4.30;99.90;;;;;;5027670;28;20091;-61
2023/01/27 00:08:00;;;;;;;24.92;10.00;;;4.30;99.90;;;;;;5029754;28;20037;-62
2023/01/27 00:10:26;;;;;;;20.05;9.57;;;4.30;99.90;;;;;;5035862;28;20044;-62
2023/01/27 00:15:37;;;;;;;18.88;10.15;;;4.30;99.90;;;;;;5018847;28;20133;-62
2023/01/27 00:18:03;;;;;;;19.65;9.13;;;4.50;99.90;;;;;;5016747;28;20116;-63
2023/01/27 00:26:05;;;;;;;23.52;10.32;;;4.20;99.90;;;;;;5029909;28;20467;-62
2023/01/27 00:28:35;;;;;;;21.42;10.32;;;4.30;99.90;;;;;;5029372;28;20507;-62
2023/01/27 00:31:01;;;;;;;20.25;10.13;;;4.30;99.90;;;;;;5028789;28;20045;-62
2023/01/27 00:33:28;;;;;;;21.88;10.70;;;4.30;99.90;;;;;;5040113;28;20032;-62
2023/01/27 00:36:07;;;;;;;20.70;10.02;;;4.20;99.90;;;;;;5041855;28;20399;-64
2023/01/27 00:38:39;;;;;;;19.48;10.25;;;4.20;99.90;;;;;;5026896;28;20060;-63
2023/01/27 00:41:18;;;;;;;21.98;10.57;;;4.20;99.90;;;;;;5023740;28;20076;-63
2023/01/27 00:43:44;;;;;;;23.27;10.73;;;4.20;99.90;;;;;;5028720;28;20068;-61
2023/01/27 00:46:11;;;;;;;21.15;10.57;;;4.20;99.90;;;;;;5032723;28;20041;-65
2023/01/27 00:48:37;;;;;;;20.42;11.15;;;4.20;99.90;;;;;;5039458;28;20048;-62
2023/01/27 00:51:03;;;;;;;21.33;11.27;;;4.20;99.90;;;;;;5033441;28;20396;-61
2023/01/27 00:53:29;;;;;;;22.05;11.02;;;4.30;99.90;;;;;;5029434;28;20072;-65
2023/01/27 00:55:57;;;;;;;23.33;11.00;;;4.20;99.90;;;;;;5028384;28;20434;-62
2023/01/27 00:58:23;;;;;;;19.35;11.02;;;4.20;99.90;;;;;;5037700;28;20041;-64
2023/01/27 01:00:51;;;;;;;22.70;11.68;;;4.30;99.90;;;;;;5039382;28;20131;-63
2023/01/27 01:03:16;;;;;;;19.83;11.10;;;4.30;99.90;;;;;;5028200;28;20037;-63
2023/01/27 01:05:42;;;;;;;19.77;10.95;;;4.30;99.90;;;;;;5033534;28;20048;-62
2023/01/27 01:08:08;;;;;;;17.60;10.52;;;4.30;99.90;;;;;;5023488;28;20487;-62
2023/01/27 01:10:36;;;;;;;18.98;9.73;;;4.30;99.90;;;;;;5043734;28;20126;-62
2023/01/27 01:13:02;;;;;;;17.52;9.63;;;4.30;99.90;;;;;;5044631;28;20055;-62
2023/01/27 01:15:27;;;;;;;15.18;9.50;;;4.30;99.90;;;;;;5031632;28;20045;-62
2023/01/27 01:17:53;;;;;;;16.77;9.88;;;4.30;99.90;;;;;;5040627;28;20491;-62
2023/01/27 01:20:19;;;;;;;16.45;9.25;;;4.30;99.90;;;;;;5034265;28;20043;-63
2023/01/27 01:22:44;;;;;;;16.45;9.13;;;4.20;99.90;;;;;;5029073;28;20037;-62
2023/01/27 01:25:10;;;;;;;15.52;9.57;;;4.30;99.90;;;;;;5034258;28;20091;-62
2023/01/27 01:27:35;;;;;;;18.92;9.05;;;4.30;99.90;;;;;;5032986;28;20040;-63
2023/01/27 01:30:02;;;;;;;14.02;8.18;;;4.30;99.90;;;;;;5041472;28;20041;-65
2023/01/27 01:32:27;;;;;;;14.27;8.75;;;4.30;99.90;;;;;;5035117;28;20116;-63
2023/01/27 01:34:53;;;;;;;15.82;8.63;;;4.30;99.90;;;;;;5040666;28;20116;-62
2023/01/27 01:37:19;;;;;;;15.43;8.57;;;4.30;99.90;;;;;;5028148;28;20232;-64
2023/01/27 01:39:44;;;;;;;16.15;9.35;;;4.30;99.90;;;;;;5042613;28;20091;-63
2023/01/27 01:42:10;;;;;;;17.23;9.05;;;4.30;99.90;;;;;;5030781;28;20045;-63
2023/01/27 01:44:35;;;;;;;13.95;8.43;;;4.30;99.90;;;;;;5035023;28;20037;-64
2023/01/27 01:47:01;;;;;;;16.05;8.27;;;4.30;99.90;;;;;;5028495;28;20104;-62
2023/01/27 01:49:33;;;;;;;14.77;8.05;;;4.30;99.90;;;;;;5031858;28;20045;-62
2023/01/27 01:52:06;;;;;;;12.77;7.15;;;4.20;99.90;;;;;;5033242;28;20404;-63
2023/01/27 01:54:41;;;;;;;10.70;6.55;;;4.30;99.90;;;;;;5029540;28;20111;-62
2023/01/27 01:57:08;;;;;;;12.52;7.22;;;4.30;99.90;;;;;;5044592;28;20044;-63
2023/01/27 01:59:40;;;;;;;12.18;6.68;;;4.30;99.90;;;;;;5030416;28;20030;-62
2023/01/27 02:02:09;;;;;;;15.73;7.20;;;4.30;99.90;;;;;;5038691;28;20065;-63
2023/01/27 02:05:03;;;;;;;12.93;6.82;;;4.30;99.90;;;;;;5028146;28;20481;-62
2023/01/27 02:07:34;;;;;;;11.43;6.25;;;4.30;99.90;;;;;;5013600;28;20053;-62
2023/01/27 02:10:01;;;;;;;11.13;6.20;;;4.30;99.90;;;;;;5027122;28;20037;-65
2023/01/27 02:12:27;;;;;;;13.05;6.13;;;4.30;99.90;;;;;;5016792;28;20518;-63
2023/01/27 02:14:53;;;;;;;11.27;5.75;;;4.30;99.90;;;;;;5040651;28;20041;-64
2023/01/27 02:17:19;;;;;;;11.30;5.65;;;4.30;99.90;;;;;;5018954;28;20048;-64
2023/01/27 02:20:10;;;;;;;9.50;5.00;;;4.30;99.90;;;;;;5030122;28;20098;-63
2023/01/27 02:22:45;;;;;;;8.45;4.70;;;4.30;99.90;;;;;;5038562;28;20029;-62
2023/01/27 02:25:34;;;;;;;8.98;5.07;;;4.30;99.90;;;;;;5022609;28;20076;-63
2023/01/27 02:28:05;;;;;;;7.47;4.60;;;4.30;99.90;;;;;;5005656;28;20506;-62
2023/01/27 02:30:31;;;;;;;7.35;4.50;;;4.30;99.90;;;;;;5029074;28;20037;-62
2023/01/27 02:32:56;;;;;;;10.10;4.90;;;4.30;99.90;;;;;;5020366;28;20096;-63
2023/01/27 02:35:32;;;;;;;10.75;5.05;;;4.30;99.90;;;;;;5027245;28;20396;-62
2023/01/27 02:37:58;;;;;;;9.10;5.50;;;4.30;99.90;;;;;;5026470;28;20260;-63
2023/01/27 02:40:25;;;;;;;8.32;5.32;;;4.50;99.90;;;;;;5029809;28;20501;-63
2023/01/27 02:42:56;;;;;;;8.63;5.10;;;4.30;99.90;;;;;;5032611;28;20515;-64
2023/01/27 02:45:22;;;;;;;9.70;5.45;;;4.30;99.90;;;;;;5022585;28;20037;-63
2023/01/27 02:47:48;;;;;;;10.40;6.22;;;4.40;99.90;;;;;;5026593;28;20057;-63
2023/01/27 02:50:13;;;;;;;10.90;6.25;;;4.20;99.90;;;;;;5024194;28;20495;-63
2023/01/27 02:52:39;;;;;;;8.90;5.60;;;4.30;99.90;;;;;;5036026;28;20037;-63
2023/01/27 02:55:05;;;;;;;9.77;5.80;;;4.30;99.90;;;;;;5041775;28;20033;-63
2023/01/27 02:57:31;;;;;;;9.80;5.82;;;4.30;99.90;;;;;;5030977;28;20067;-63
2023/01/27 02:59:57;;;;;;;9.90;5.43;;;4.30;99.90;;;;;;5031489;28;20041;-63
2023/01/27 03:02:29;;;;;;;8.70;5.72;;;4.20;99.90;;;;;;5028126;28;20037;-63
2023/01/27 03:04:59;;;;;;;10.57;5.75;;;4.30;99.90;;;;;;5014793;28;20080;-64
2023/01/27 03:07:24;;;;;;;10.30;6.28;;;4.30;99.90;;;;;;5036220;28;20399;-63
2023/01/27 03:09:50;;;;;;;12.63;5.68;;;4.50;99.90;;;;;;5029953;28;20050;-64
2023/01/27 03:12:18;;;;;;;12.15;6.40;;;4.30;99.90;;;;;;5028612;28;20045;-63
2023/01/27 03:20:12;;;;;;;10.07;5.65;;;4.30;99.90;;;;;;5031587;28;20041;-64
2023/01/27 03:22:38;;;;;;;10.57;5.68;;;4.30;99.90;;;;;;5033432;28;20037;-62
2023/01/27 03:25:04;;;;;;;10.35;5.50;;;4.30;99.90;;;;;;5028602;28;20042;-62
2023/01/27 03:27:30;;;;;;;8.82;5.22;;;4.30;99.90;;;;;;5032396;28;20077;-63
2023/01/27 03:29:56;;;;;;;11.68;5.38;;;4.40;99.90;;;;;;5036297;28;20077;-63
2023/01/27 03:32:28;;;;;;;7.70;4.68;;;4.30;99.90;;;;;;5035358;28;20045;-62
2023/01/27 03:34:56;;;;;;;7.90;5.00;;;4.30;99.90;;;;;;5029232;28;20045;-63
2023/01/27 03:48:31;;;;;;;7.10;3.65;;;4.30;99.90;;;;;;5022730;28;20041;-62
2023/01/27 03:51:01;;;;;;;7.55;3.45;;;4.30;99.90;;;;;;5033469;28;20092;-63
2023/01/27 03:53:26;;;;;;;6.25;3.30;;;4.30;99.90;;;;;;5038317;28;20099;-63
2023/01/27 03:55:52;;;;;;;8.15;3.70;;;4.30;99.90;;;;;;5031610;28;20037;-61
2023/01/27 03:58:24;;;;;;;5.43;3.20;;;4.30;99.90;;;;;;5032074;28;20446;-62
2023/01/27 04:00:59;;;;;;;4.75;3.28;;;4.30;99.90;;;;;;5027322;28;20083;-62
2023/01/27 04:08:58;;;;;;;4.65;2.75;;;4.30;99.90;;;;;;5027376;28;20132;-64
2023/01/27 04:14:10;;;;;;;5.68;3.00;;;4.30;99.90;;;;;;5031263;28;20507;-62
2023/01/27 04:16:36;;;;;;;5.13;3.00;;;4.30;99.90;;;;;;5027051;28;20034;-62
2023/01/27 04:19:02;;;;;;;4.68;2.92;;;4.30;99.90;;;;;;5037182;28;20040;-65
2023/01/27 04:21:28;;;;;;;5.13;2.80;;;4.30;99.90;;;;;;5036304;28;20123;-63
2023/01/27 04:23:54;;;;;;;5.80;3.05;;;4.30;99.90;;;;;;5028922;28;20073;-64
2023/01/27 04:26:21;;;;;;;4.53;2.78;;;4.30;99.90;;;;;;5022583;28;20042;-63
2023/01/27 04:28:46;;;;;;;6.45;3.45;;;4.30;99.90;;;;;;5028528;28;20049;-64
2023/01/27 04:31:13;;;;;;;5.35;3.17;;;4.30;99.90;;;;;;5022508;28;20052;-61
2023/01/27 04:33:39;;;;;;;6.35;3.40;;;4.30;99.90;;;;;;5033092;28;20057;-63
2023/01/27 04:36:05;;;;;;;4.35;3.08;;;4.40;99.90;;;;;;5033798;28;20049;-64
2023/01/27 04:38:30;;;;;;;6.07;3.05;;;4.30;99.90;;;;;;5031652;28;20076;-65
2023/01/27 04:40:56;;;;;;;4.53;2.83;;;4.30;99.90;;;;;;5037003;28;20073;-61
2023/01/27 04:43:22;;;;;;;5.25;3.03;;;4.30;99.90;;;;;;5036178;28;20467;-62
2023/01/27 04:45:47;;;;;;;7.55;3.45;;;4.30;99.90;;;;;;5033708;28;20056;-62
2023/01/27 04:48:13;;;;;;;6.72;3.75;;;4.30;99.90;;;;;;5033750;28;20037;-63
2023/01/27 04:50:38;;;;;;;5.25;3.10;;;4.30;99.90;;;;;;5032124;28;20034;-62
2023/01/27 04:53:04;;;;;;;4.85;3.38;;;4.30;99.90;;;;;;5037403;28;20041;-61
2023/01/27 04:55:30;;;;;;;5.82;3.08;;;4.30;99.90;;;;;;5043647;28;20075;-62
2023/01/27 04:57:55;;;;;;;5.40;3.25;;;4.20;99.90;;;;;;5029072;28;20043;-62
2023/01/27 05:00:21;;;;;;;5.35;3.10;;;4.30;99.90;;;;;;5034700;28;20080;-61
2023/01/27 05:02:47;;;;;;;4.90;3.03;;;4.30;99.90;;;;;;5031072;28;20041;-62
2023/01/27 05:05:12;;;;;;;6.03;3.20;;;4.30;99.90;;;;;;5029304;28;20499;-63
2023/01/27 05:07:39;;;;;;;6.10;3.25;;;4.30;99.90;;;;;;5027692;28;20117;-62
2023/01/27 05:10:06;;;;;;;4.50;2.92;;;4.30;99.90;;;;;;5035837;28;20042;-62
2023/01/27 05:12:32;;;;;;;3.88;2.75;;;4.30;99.90;;;;;;5027727;28;20046;-62
2023/01/27 05:14:58;;;;;;;4.45;2.90;;;4.30;99.90;;;;;;5033093;28;20049;-61
2023/01/27 05:17:24;;;;;;;5.97;2.78;;;4.30;99.90;;;;;;5039963;28;20072;-61
2023/01/27 05:19:49;;;;;;;7.72;3.05;;;4.30;99.90;;;;;;5024586;28;20069;-62
2023/01/27 05:22:15;;;;;;;4.72;2.60;;;4.20;99.90;;;;;;5031713;28;20110;-62
2023/01/27 05:24:40;;;;;;;5.05;2.28;;;4.20;99.90;;;;;;5027215;28;20046;-62
2023/01/27 05:27:06;;;;;;;5.95;2.70;;;4.30;99.90;;;;;;5024484;28;20094;-63
2023/01/27 05:29:32;;;;;;;7.15;2.63;;;4.20;99.90;;;;;;5034766;28;20033;-64
2023/01/27 05:31:58;;;;;;;5.63;2.30;;;4.20;99.90;;;;;;5031635;28;20033;-62
2023/01/27 05:34:23;;;;;;;5.80;2.55;;;4.20;99.90;;;;;;5032670;28;20134;-62
2023/01/27 05:36:50;;;;;;;5.65;2.63;;;4.20;99.90;;;;;;5046353;28;20033;-62
2023/01/27 05:39:16;;;;;;;4.30;2.20;;;4.20;99.90;;;;;;5038434;28;20394;-62
2023/01/27 05:41:42;;;;;;;7.90;2.63;;;4.20;99.90;;;;;;5029621;28;20503;-63
2023/01/27 05:44:10;;;;;;;8.63;2.45;;;4.20;99.90;;;;;;5033010;28;20030;-63
2023/01/27 05:46:38;;;;;;;5.38;2.33;;;4.20;99.90;;;;;;5032170;28;20044;-62
2023/01/27 05:49:04;;;;;;;4.30;2.55;;;4.20;99.90;;;;;;5034560;28;20400;-63
2023/01/27 05:51:41;;;;;;;4.18;2.47;;;4.20;99.90;;;;;;5043197;28;20036;-63
2023/01/27 05:54:07;;;;;;;5.25;2.58;;;4.20;99.90;;;;;;5038460;28;20538;-62
2023/01/27 05:56:33;;;;;;;5.20;2.28;;;4.20;99.90;;;;;;5029695;28;20038;-63
2023/01/27 05:58:59;;;;;;;3.17;2.20;;;4.20;99.90;;;;;;5032875;28;20396;-64
2023/01/27 06:01:27;;;;;;;5.00;2.40;;;4.20;99.90;;;;;;5029428;28;20030;-62
2023/01/27 06:03:53;;;;;;;6.47;2.33;;;4.20;99.90;;;;;;5019283;28;20439;-64
2023/01/27 06:06:21;;;;;;;4.38;2.05;;;4.20;99.90;;;;;;5024976;28;20042;-63
2023/01/27 06:08:47;;;;;;;5.18;2.50;;;4.20;99.90;;;;;;5031505;28;20048;-63
2023/01/27 06:11:14;;;;;;;4.45;2.53;;;4.20;99.90;;;;;;5029269;28;20391;-63
2023/01/27 06:13:40;;;;;;;3.92;2.38;;;4.20;99.90;;;;;;5018641;28;20069;-64
2023/01/27 06:16:09;;;;;;;5.05;2.45;;;4.20;99.90;;;;;;5023590;28;20496;-64
2023/01/27 06:18:35;;;;;;;3.88;2.42;;;4.20;99.90;;;;;;5015106;28;20492;-62
2023/01/27 06:21:02;;;;;;;6.55;2.40;;;4.20;99.90;;;;;;5022587;28;20034;-63
2023/01/27 06:23:28;;;;;;;6.43;2.40;;;4.30;99.90;;;;;;5024272;28;20046;-63
2023/01/27 06:25:55;;;;;;;6.03;2.70;;;4.20;99.90;;;;;;5031446;28;20110;-64
2023/01/27 06:28:21;;;;;;;5.53;2.58;;;4.20;99.90;;;;;;5034412;28;20048;-63
2023/01/27 06:30:47;;;;;;;7.55;2.60;;;4.20;99.90;;;;;;5028664;28;20050;-63
2023/01/27 06:33:13;;;;;;;4.78;2.30;;;4.20;99.90;;;;;;5029087;28;20025;-63
2023/01/27 06:35:39;;;;;;;7.38;2.95;;;4.20;99.90;;;;;;5027227;28;20034;-63
2023/01/27 06:38:09;;;;;;;6.65;2.40;;;4.20;99.90;;;;;;5031266;28;20029;-63
2023/01/27 06:40:35;;;;;;;4.50;2.47;;;4.20;99.90;;;;;;5037361;28;20380;-63
2023/01/27 06:43:01;;;;;;;5.50;2.30;;;4.20;99.90;;;;;;5039801;28;20052;-63
2023/01/27 06:45:27;;;;;;;6.28;2.90;;;4.20;99.90;;;;;;5034317;28;20048;-63
2023/01/27 06:47:55;;;;;;;5.18;2.60;;;4.20;99.90;;;;;;5021306;28;20045;-65
2023/01/27 06:50:20;;;;;;;4.32;2.65;;;4.20;99.90;;;;;;5016449;28;20424;-64
2023/01/27 06:52:46;;;;;;;6.38;2.75;;;4.20;99.90;;;;;;5021702;28;20080;-63
2023/01/27 06:55:12;;;;;;;5.95;2.53;;;4.20;99.90;;;;;;5023748;28;20237;-63
2023/01/27 06:57:38;;;;;;;5.45;2.80;;;4.20;99.90;;;;;;5020763;28;20531;-64
2023/01/27 07:00:04;;;;;;;5.70;2.25;;;4.20;99.90;;;;;;5039127;28;20036;-64
2023/01/27 07:02:33;;;;;;;5.40;2.50;;;4.20;99.90;;;;;;5031521;28;20041;-63
2023/01/27 07:04:58;;;;;;;3.95;2.55;;;4.20;99.90;;;;;;5036732;28;20037;-65
2023/01/27 07:07:24;;;;;;;5.95;2.90;;;4.10;99.90;;;;;;5030116;28;20041;-64
2023/01/27 07:09:50;;;;;;;6.30;2.78;;;4.30;99.90;;;;;;5021885;28;20065;-63
2023/01/27 07:12:15;;;;;;;4.60;2.55;;;4.10;99.90;;;;;;5029559;28;20139;-64
2023/01/27 07:14:41;;;;;;;6.10;2.90;;;4.10;99.90;;;;;;5037995;28;20046;-64
2023/01/27 07:17:07;;;;;;;3.75;2.60;;;4.00;99.90;;;;;;5043186;28;20052;-63
2023/01/27 07:19:32;;;;;;;6.20;2.72;;;4.00;99.90;;;;;;5036643;28;20041;-63
2023/01/27 07:21:58;;;;;;;5.55;2.88;;;4.00;99.90;;;;;;5030033;28;20492;-64
2023/01/27 07:24:23;;;;;;;6.97;2.72;;;4.00;99.90;;;;;;5011854;28;20041;-64
2023/01/27 07:26:49;;;;;;;7.47;2.80;;;4.00;99.90;;;;;;5027563;28;20041;-64
2023/01/27 07:29:15;;;;;;;6.13;2.78;;;4.00;99.90;;;;;;5038520;28;20470;-63
2023/01/27 07:31:41;;;;;;;5.10;2.47;;;4.00;99.90;;;;;;5030700;28;20052;-64
2023/01/27 07:34:06;;;;;;;5.85;2.53;;;4.00;99.90;;;;;;5029444;28;20034;-63
2023/01/27 07:36:32;;;;;;;6.53;2.83;;;4.00;99.90;;;;;;5030307;28;20040;-64
2023/01/27 07:38:58;;;;;;;7.75;3.20;;;4.00;99.90;;;;;;5028980;28;20463;-65
2023/01/27 07:41:25;;;;;;;5.05;2.85;;;3.90;99.90;;;;;;5037356;28;20036;-65
2023/01/27 07:43:50;;;;;;;6.95;3.13;;;3.90;99.90;;;;;;5025877;28;20076;-63
2023/01/27 07:46:16;;;;;;;5.97;2.65;;;3.90;99.90;;;;;;5040775;28;20545;-64
2023/01/27 07:48:41;;;;;;;7.22;3.03;;;4.00;99.90;;;;;;5040874;28;20041;-63
2023/01/27 07:51:12;;;;;;;6.13;3.05;;;4.00;99.90;;;;;;5027660;28;20044;-63
2023/01/27 07:53:38;;;;;;;9.02;3.05;;;4.00;99.90;;;;;;5024813;28;20066;-64
2023/01/27 07:56:04;;;;;;;7.57;3.20;;;4.10;99.90;;;;;;5023761;28;20116;-63
2023/01/27 07:58:30;;;;;;;8.48;3.50;;;3.90;99.90;;;;;;5038305;28;20128;-63
2023/01/27 08:00:55;;;;;;;5.65;3.20;;;4.00;99.90;;;;;;5040032;28;20484;-63
2023/01/27 08:03:24;;;;;;;8.02;3.08;;;3.90;99.90;;;;;;5041417;28;20119;-63
2023/01/27 08:05:50;;;;;;;6.97;3.38;;;3.90;99.90;;;;;;5034939;28;20399;-63
2023/01/27 08:08:17;;;;;;;6.07;3.17;;;3.90;99.90;;;;;;5035781;28;20072;-63
2023/01/27 08:10:47;;;;;;;7.68;3.70;;;3.90;99.90;;;;;;5027204;28;20403;-62
2023/01/27 08:13:14;;;;;;;6.93;4.00;;;3.90;99.90;;;;;;5028216;28;20041;-63
2023/01/27 08:15:40;;;;;;;8.10;4.03;;;3.90;99.90;;;;;;5024696;28;20045;-62
2023/01/27 08:18:06;;;;;;;11.73;4.13;;;4.00;99.90;;;;;;5043178;28;20503;-62
2023/01/27 08:20:31;;;;;;;8.05;4.10;;;3.90;99.90;;;;;;5031572;28;20412;-63
2023/01/27 08:22:57;;;;;;;9.45;4.15;;;3.90;99.90;;;;;;5037337;28;20037;-64
2023/01/27 08:25:23;;;;;;;9.88;4.47;;;3.90;99.90;;;;;;5039704;28;20048;-63
2023/01/27 08:27:54;;;;;;;6.72;4.03;;;3.90;99.90;;;;;;5040381;28;20040;-65
2023/01/27 08:30:20;;;;;;;8.63;4.13;;;3.90;99.90;;;;;;5044126;28;20043;-64
2023/01/27 08:32:46;;;;;;;7.38;4.40;;;3.90;99.90;;;;;;5032982;28;20037;-63
2023/01/27 08:35:12;;;;;;;8.15;4.18;;;3.90;99.90;;;;;;5037970;28;20045;-63
2023/01/27 08:37:38;;;;;;;8.70;4.22;;;4.00;99.90;;;;;;5036094;28;20092;-63
2023/01/27 08:40:04;;;;;;;7.25;3.80;;;4.00;99.90;;;;;;5030595;28;20034;-66
2023/01/27 08:42:29;;;;;;;7.32;4.07;;;4.00;99.90;;;;;;5027595;28;20393;-65
2023/01/27 08:44:55;;;;;;;6.25;3.97;;;4.00;99.90;;;;;;5038637;28;20095;-63
2023/01/27 08:47:21;;;;;;;7.60;3.90;;;4.10;99.90;;;;;;5023526;28;20111;-63
2023/01/27 08:49:46;;;;;;;8.70;3.75;;;4.00;99.90;;;;;;5020776;28;20041;-63
2023/01/27 08:52:12;;;;;;;7.30;3.55;;;4.10;99.90;;;;;;5031080;28;20065;-63
2023/01/27 08:54:38;;;;;;;7.07;3.72;;;4.10;99.90;;;;;;5021060;28;20038;-64
2023/01/27 08:57:04;;;;;;;13.00;3.72;;;4.10;99.90;;;;;;5023174;28;20044;-65
2023/01/27 08:59:29;;;;;;;8.85;3.70;;;4.20;99.90;;;;;;5039040;28;20045;-63
2023/01/27 09:01:55;;;;;;;9.00;3.50;;;4.20;99.90;;;;;;5026658;28;20501;-64
2023/01/27 09:04:22;;;;;;;7.53;3.58;;;4.30;99.90;;;;;;5035900;28;20037;-63
2023/01/27 09:06:49;;;;;;;7.55;3.90;;;4.40;99.90;;;;;;5031863;28;20056;-64
2023/01/27 09:09:15;;;;;;;10.32;4.55;;;4.50;99.90;;;;;;5026160;28;20416;-64
2023/01/27 09:11:43;;;;;;;10.48;4.38;;;4.50;99.90;;;;;;5014620;28;20049;-64
2023/01/27 09:14:10;;;;;;;10.45;3.90;;;4.50;99.90;;;;;;5018205;28;20067;-63
2023/01/27 09:16:36;;;;;;;7.28;4.15;;;4.50;99.90;;;;;;5015169;28;20081;-63
2023/01/27 09:19:03;;;;;;;7.68;3.92;;;4.60;99.90;;;;;;5018803;28;20480;-63
2023/01/27 09:21:28;;;;;;;7.72;3.80;;;4.60;99.90;;;;;;5014802;28;20038;-64
2023/01/27 09:23:54;;;;;;;7.85;4.20;;;4.70;99.90;;;;;;5019359;28;20565;-63
2023/01/27 09:26:20;;;;;;;8.85;4.00;;;4.70;99.90;;;;;;5017051;28;20038;-64
2023/01/27 09:28:45;;;;;;;10.23;4.00;;;4.70;99.90;;;;;;5015349;28;20518;-64
2023/01/27 09:31:11;;;;;;;6.93;4.15;;;4.70;99.90;;;;;;5014031;28;20078;-64
2023/01/27 09:33:37;;;;;;;6.88;4.70;;;4.80;99.90;;;;;;5014484;28;20045;-63
2023/01/27 09:36:10;;;;;;;8.27;4.28;;;4.80;99.90;;;;;;5031531;28;20041;-63
2023/01/27 09:38:54;;;;;;;7.68;4.22;;;4.90;99.90;;;;;;5031855;28;20222;-64
2023/01/27 09:41:37;;;;;;;6.43;3.65;;;4.90;99.90;;;;;;5022526;28;20040;-63
2023/01/27 09:44:42;;;;;;;6.95;3.67;;;4.90;99.90;;;;;;5023759;28;20091;-63
2023/01/27 09:47:34;;;;;;;7.55;3.85;;;4.90;99.90;;;;;;5035839;28;20448;-64
2023/01/27 09:50:00;;;;;;;;;;;4.90;99.90;;;;;;5029129;28;20037;-63
2023/01/27 09:52:29;;;;;;;9.32;4.05;;;4.90;99.90;;;;;;5024538;28;19920;-63
2023/01/27 09:55:03;;;;;;;7.10;3.95;;;4.90;99.90;;;;;;5016446;28;20057;-64
2023/01/27 09:57:42;;;;;;;7.30;4.18;;;4.90;99.90;;;;;;5021970;28;20044;-64
2023/01/27 10:00:15;;;;;;;6.93;3.50;;;4.90;99.90;;;;;;5037260;28;20037;-64
2023/01/27 10:03:07;;;;;;;7.55;4.00;;;4.90;99.90;;;;;;5023841;28;20396;-63
2023/01/27 10:05:52;;;;;;;9.10;4.60;;;5.00;99.90;;;;;;5036664;28;20403;-64
2023/01/27 10:11:29;;;;;;;6.22;3.88;;;5.00;99.90;;;;;;5089074;27;20524;-63
2023/01/27 10:14:16;;;;;;;10.07;4.22;;;5.00;99.90;;;;;;5089944;28;20063;-64
2023/01/27 10:16:59;;;;;;;7.13;3.90;;;5.00;99.90;;;;;;5078573;28;20047;-64
2023/01/27 10:19:39;;;;;;;10.55;4.78;;;5.00;99.90;;;;;;5085447;28;20040;-64
2023/01/27 10:22:22;;;;;;;8.77;5.35;;;5.00;99.90;;;;;;5093707;28;20401;-64
2023/01/27 10:24:56;;;;;;;8.13;5.30;;;5.00;99.90;;;;;;5090830;28;20398;-64
2023/01/27 10:27:29;;;;;;;9.65;5.45;;;5.00;99.90;;;;;;5075466;28;20127;-64
2023/01/27 10:30:15;;;;;;;8.10;4.28;;;5.00;99.90;;;;;;5073325;28;20059;-64
2023/01/27 10:32:45;;;;;;;7.90;4.45;;;5.00;99.90;;;;;;5074872;28;20048;-64
2023/01/27 10:35:19;;;;;;;7.22;4.20;;;5.00;99.90;;;;;;5090732;28;20035;-64
2023/01/27 10:37:56;;;;;;;8.30;5.38;;;5.00;99.90;;;;;;5086800;28;20039;-64
2023/01/27 10:40:30;;;;;;;8.23;6.00;;;5.00;99.90;;;;;;5080015;28;20040;-64
2023/01/27 10:43:23;;;;;;;9.25;5.50;;;4.90;99.90;;;;;;5080333;28;20051;-64
2023/01/27 10:45:57;;;;;;;;;;;4.90;99.90;;;;;;5085084;28;20040;-64
2023/01/27 10:48:48;;;;;;;7.68;4.70;;;4.90;99.90;;;;;;5087799;28;19916;-64
2023/01/27 10:51:25;;;;;;;5.07;3.67;;;4.90;99.90;;;;;;5072152;28;20048;-64
2023/01/27 10:54:02;;;;;;;5.45;3.80;;;4.90;99.90;;;;;;5074352;28;20033;-64
2023/01/27 10:56:38;;;;;;;6.60;4.00;;;4.90;99.90;;;;;;5081764;28;20071;-64
2023/01/27 10:59:20;;;;;;;4.60;2.95;;;4.80;99.90;;;;;;5077606;28;20041;-64
2023/01/27 11:01:52;;;;;;;5.80;3.20;;;4.90;99.90;;;;;;5090687;28;20101;-63
2023/01/27 11:04:38;;;;;;;4.93;2.70;;;4.80;99.90;;;;;;5082815;28;20394;-64
2023/01/27 11:07:05;;;;;;;5.93;2.90;;;4.80;99.90;;;;;;5088721;28;20098;-64
2023/01/27 11:09:35;;;;;;;5.05;3.20;;;4.80;99.90;;;;;;5084484;28;20044;-63
2023/01/27 11:12:11;;;;;;;6.25;3.40;;;4.80;99.90;;;;;;5087587;28;20036;-64
2023/01/27 11:14:50;;;;;;;4.78;3.00;;;4.80;99.90;;;;;;5080847;28;20063;-64
2023/01/27 11:17:31;;;;;;;6.05;3.20;;;4.70;99.90;;;;;;5079257;28;20032;-64
2023/01/27 11:19:56;;;;;;;4.38;3.00;;;4.70;99.90;;;;;;5080110;28;20082;-64
2023/01/27 11:22:27;;;;;;;34.15;4.15;;;4.80;99.90;;;;;;5083013;28;20122;-63
2023/01/27 11:25:31;;;;;;;5.15;3.42;;;4.80;99.90;;;;;;5061158;28;20040;-63
2023/01/27 11:28:23;;;;;;;39.92;4.93;;;4.80;99.90;;;;;;5067069;28;20045;-64
2023/01/27 11:31:02;;;;;;;7.57;3.43;;;4.80;99.90;;;;;;5069458;28;20047;-64
2023/01/27 11:33:36;;;;;;;5.57;3.58;;;4.80;99.90;;;;;;5060732;28;20286;-64
2023/01/27 11:36:02;;;;;;;5.30;3.30;;;4.80;99.90;;;;;;5076343;28;20046;-64
2023/01/27 11:38:28;;;;;;;6.57;3.35;;;4.80;99.90;;;;;;5073327;28;20107;-64
2023/01/27 11:40:54;;;;;;;5.30;3.40;;;5.00;99.90;;;;;;5064316;28;20504;-64
2023/01/27 11:43:23;;;;;;;5.60;3.58;;;4.80;99.90;;;;;;5070843;28;20140;-64
2023/01/27 11:45:54;;;;;;;6.03;3.35;;;4.80;99.90;;;;;;5063303;28;20398;-64
2023/01/27 11:48:20;;;;;;;7.05;4.63;;;4.80;99.90;;;;;;5062905;28;20680;-64
2023/01/27 11:50:46;;;;;;;5.82;4.07;;;4.90;99.90;;;;;;5058547;28;20045;-64
2023/01/27 11:53:19;;;;;;;6.65;4.38;;;4.90;99.90;;;;;;5063687;28;20058;-64
2023/01/27 11:56:08;;;;;;;7.32;3.70;;;4.90;99.90;;;;;;5069855;28;20043;-64
2023/01/27 11:58:42;;;;;;;6.28;3.58;;;4.90;99.90;;;;;;5059394;28;20045;-64
2023/01/27 12:01:21;;;;;;;6.75;4.00;;;4.90;99.90;;;;;;5064698;28;20040;-63
2023/01/27 12:04:05;;;;;;;6.68;4.40;;;5.00;99.90;;;;;;5056009;28;20099;-63
2023/01/27 12:06:46;;;;;;;5.15;3.30;;;4.90;99.90;;;;;;5060527;28;20047;-64
2023/01/27 12:09:31;;;;;;;8.00;3.35;;;4.90;99.90;;;;;;5059558;28;20037;-63
2023/01/27 12:12:19;;;;;;;5.88;3.08;;;4.90;99.90;;;;;;5062162;28;20136;-63
2023/01/27 12:14:59;;;;;;;5.30;3.22;;;4.90;99.90;;;;;;5064388;28;20032;-63
2023/01/27 12:17:34;;;;;;;4.70;2.88;;;4.90;99.90;;;;;;5064405;28;20056;-63
2023/01/27 12:20:18;;;;;;;4.95;2.85;;;4.90;99.90;;;;;;5068130;28;20071;-63
2023/01/27 12:22:47;;;;;;;4.40;3.03;;;4.90;99.90;;;;;;5060616;28;20067;-63
2023/01/27 12:25:26;;;;;;;6.70;4.75;;;4.90;99.90;;;;;;5065925;28;20033;-63
2023/01/27 12:27:57;;;;;;;6.72;4.63;;;4.90;99.90;;;;;;5057507;28;20041;-63
2023/01/27 12:30:27;;;;;;;6.35;4.75;;;4.90;99.90;;;;;;5067154;28;20037;-63
2023/01/27 12:32:53;;;;;;;8.10;6.28;;;4.90;99.90;;;;;;5064823;28;20090;-63
2023/01/27 12:35:28;;;;;;;5.90;4.40;;;4.90;99.90;;;;;;5071106;28;20090;-63
2023/01/27 12:38:15;;;;;;;5.25;3.28;;;4.90;99.90;;;;;;5065987;28;20406;-63
2023/01/27 12:40:45;;;;;;;4.60;2.88;;;4.90;99.90;;;;;;5061345;28;20635;-63
2023/01/27 12:43:16;;;;;;;6.15;3.50;;;4.90;99.90;;;;;;5066175;28;20056;-63
2023/01/27 12:45:42;;;;;;;6.35;3.30;;;5.00;99.90;;;;;;5065003;28;20033;-63
2023/01/27 12:48:08;;;;;;;6.00;3.78;;;5.00;99.90;;;;;;5059849;28;21409;-63
2023/01/27 12:50:38;;;;;;;6.13;3.70;;;5.00;99.90;;;;;;5055394;28;20036;-63
2023/01/27 12:53:07;;;;;;;5.80;3.13;;;5.00;99.90;;;;;;5053983;28;20098;-63
2023/01/27 12:55:40;;;;;;;5.60;3.10;;;5.00;99.90;;;;;;5067643;28;20089;-63
2023/01/27 12:58:33;;;;;;;16.77;6.97;;;5.00;99.90;;;;;;5069156;28;20036;-63
2023/01/27 13:01:04;;;;;;;;;;;5.00;99.90;;;;;;5054771;28;20045;-63
2023/01/27 13:03:31;;;;;;;8.60;4.15;;;5.00;99.90;;;;;;5054394;28;19961;-63
2023/01/27 13:05:58;;;;;;;5.40;3.38;;;5.00;99.90;;;;;;5066814;28;20048;-63
2023/01/27 13:08:27;;;;;;;5.05;2.80;;;5.00;99.90;;;;;;5073773;28;20490;-63
2023/01/27 13:10:59;;;;;;;4.47;2.78;;;5.00;99.90;;;;;;5065887;28;20123;-63
2023/01/27 13:13:27;;;;;;;7.97;3.00;;;5.10;99.90;;;;;;5064490;28;20036;-62
2023/01/27 13:16:25;;;;;;;4.40;2.75;;;5.10;99.90;;;;;;5067461;28;20048;-63
2023/01/27 13:18:58;;;;;;;3.45;2.50;;;5.10;99.90;;;;;;5073630;28;20036;-63
2023/01/27 13:21:35;;;;;;;3.95;2.33;;;5.10;99.90;;;;;;5056864;28;20040;-62
2023/01/27 13:24:05;;;;;;;4.55;2.20;;;5.10;99.90;;;;;;5066045;28;20437;-63
2023/01/27 13:26:36;;;;;;;3.75;2.38;;;5.00;99.90;;;;;;5056862;28;20040;-63
2023/01/27 13:29:11;;;;;;;5.57;3.92;;;5.00;99.90;;;;;;5068482;28;20542;-62
2023/01/27 13:31:57;;;;;;;3.95;2.90;;;5.00;99.90;;;;;;5060495;28;20064;-63
2023/01/27 13:34:51;;;;;;;4.15;2.97;;;5.00;99.90;;;;;;5063783;28;20131;-62
2023/01/27 13:37:46;;;;;;;4.82;3.40;;;4.90;99.90;;;;;;5064225;28;20041;-63
2023/01/27 13:40:30;;;;;;;5.28;3.03;;;4.90;99.90;;;;;;5067196;28;20044;-63
2023/01/27 13:43:18;;;;;;;4.40;2.80;;;4.90;99.90;;;;;;5061658;28;20048;-63
2023/01/27 13:45:50;;;;;;;5.53;2.67;;;4.90;99.90;;;;;;5067857;28;20049;-63